Time;durP1;ratioP1;P1;durP2;ratioP2;P2;SDS_P1;SDS_P2;PMS_P1;PMS_P2;Temp;Humidity;BMP_temperature;BMP_pressure;BME280_temperature;BME280_humidity;BME280_pressure;Samples;Min_cycle;Max_cycle;Signal;HPM_P1;HPM_P2
2023/04/17 00:01:25;;;;;;;43.78;26.33;;;10.00;99.90;;;;;;5028365;28;20483;-76
2023/04/17 00:03:53;;;;;;;54.58;27.67;;;10.00;99.90;;;;;;5016499;28;20053;-76
2023/04/17 00:06:20;;;;;;;52.75;26.27;;;10.00;99.90;;;;;;5016057;28;20046;-76
2023/04/17 00:08:47;;;;;;;47.15;26.17;;;9.90;99.90;;;;;;5011305;28;20140;-76
2023/04/17 00:11:13;;;;;;;57.08;28.67;;;10.00;99.90;;;;;;5014135;28;20145;-77
2023/04/17 00:13:42;;;;;;;52.30;26.77;;;9.90;99.90;;;;;;5014814;28;20076;-76
2023/04/17 00:16:11;;;;;;;53.97;27.23;;;9.90;99.90;;;;;;5014243;28;20038;-76
2023/04/17 00:18:39;;;;;;;62.03;28.55;;;9.90;99.90;;;;;;5014070;28;20057;-76
2023/04/17 00:21:05;;;;;;;45.33;26.05;;;9.80;99.90;;;;;;5011165;28;20084;-76
2023/04/17 00:23:32;;;;;;;61.13;29.52;;;9.80;99.90;;;;;;5013639;28;20462;-76
2023/04/17 00:25:59;;;;;;;61.03;27.77;;;9.80;99.90;;;;;;5006335;28;20493;-76
2023/04/17 00:28:25;;;;;;;58.35;28.83;;;9.80;99.90;;;;;;5013993;28;20416;-76
2023/04/17 00:30:52;;;;;;;56.15;27.45;;;9.70;99.90;;;;;;5012963;28;20137;-76
2023/04/17 00:33:19;;;;;;;53.78;27.52;;;9.70;99.90;;;;;;5021623;28;20530;-76
2023/04/17 00:35:46;;;;;;;57.78;28.38;;;9.70;99.90;;;;;;5010367;28;20085;-76
2023/04/17 00:38:13;;;;;;;52.63;27.67;;;9.70;99.90;;;;;;5013839;28;20081;-76
2023/04/17 00:40:40;;;;;;;56.40;28.52;;;9.70;99.90;;;;;;5013636;28;20045;-77
2023/04/17 00:43:07;;;;;;;49.97;26.25;;;9.70;99.90;;;;;;5012194;28;20656;-76
2023/04/17 00:45:34;;;;;;;47.47;26.98;;;9.60;99.90;;;;;;5008989;28;20089;-76
2023/04/17 00:48:02;;;;;;;55.30;27.80;;;9.70;99.90;;;;;;5013413;28;20045;-76
2023/04/17 00:50:30;;;;;;;53.90;29.48;;;9.70;99.90;;;;;;5010641;28;20046;-76
2023/04/17 00:52:58;;;;;;;58.17;28.80;;;9.60;99.90;;;;;;5011276;28;20048;-76
2023/04/17 00:55:26;;;;;;;58.42;27.67;;;9.70;99.90;;;;;;5014280;28;20498;-76
2023/04/17 00:57:54;;;;;;;54.65;28.42;;;9.60;99.90;;;;;;5011041;28;20429;-76
2023/04/17 01:00:21;;;;;;;54.30;27.23;;;9.70;99.90;;;;;;5010448;28;20129;-77
2023/04/17 01:02:48;;;;;;;47.85;26.35;;;9.70;99.90;;;;;;5012055;28;20072;-77
2023/04/17 01:05:15;;;;;;;48.17;26.58;;;9.70;99.90;;;;;;5009693;28;20049;-76
2023/04/17 01:07:42;;;;;;;56.35;26.70;;;9.70;99.90;;;;;;5010674;28;20046;-77
2023/04/17 01:10:09;;;;;;;55.75;27.35;;;9.70;99.90;;;;;;5013470;28;20045;-76
2023/04/17 01:12:36;;;;;;;48.40;25.33;;;9.70;99.90;;;;;;5010155;28;20057;-77
2023/04/17 01:15:03;;;;;;;52.63;26.75;;;9.60;99.90;;;;;;5001291;28;20133;-77
2023/04/17 01:17:30;;;;;;;49.42;25.30;;;9.60;99.90;;;;;;5013191;28;20038;-76
2023/04/17 01:19:57;;;;;;;48.35;25.45;;;9.60;99.90;;;;;;5009385;28;20506;-77
2023/04/17 01:22:24;;;;;;;51.58;26.98;;;9.60;99.90;;;;;;5012101;28;20100;-77
2023/04/17 01:24:51;;;;;;;47.78;24.60;;;9.60;99.90;;;;;;5006042;28;20100;-77
2023/04/17 01:27:21;;;;;;;47.53;25.70;;;9.60;99.90;;;;;;5012456;28;20050;-77
2023/04/17 01:29:48;;;;;;;50.22;26.58;;;9.60;99.90;;;;;;5008301;28;20513;-76
2023/04/17 01:32:15;;;;;;;47.50;26.25;;;9.60;99.90;;;;;;5015578;28;20080;-76
2023/04/17 01:34:41;;;;;;;49.30;27.88;;;9.60;99.90;;;;;;5011513;28;20041;-76
2023/04/17 01:37:08;;;;;;;50.75;26.90;;;9.60;99.90;;;;;;5025319;28;20046;-76
2023/04/17 01:39:36;;;;;;;45.95;25.23;;;9.60;99.90;;;;;;5023085;28;20056;-75
2023/04/17 01:42:03;;;;;;;39.30;24.65;;;9.60;99.90;;;;;;5022343;28;20084;-75
2023/04/17 01:44:30;;;;;;;46.92;27.02;;;9.50;99.90;;;;;;5034045;28;20065;-76
2023/04/17 01:46:57;;;;;;;43.92;25.00;;;9.50;99.90;;;;;;5031706;28;20042;-75
2023/04/17 01:49:25;;;;;;;44.22;25.02;;;9.50;99.90;;;;;;5022751;28;20073;-76
2023/04/17 01:51:53;;;;;;;47.47;24.60;;;9.40;99.90;;;;;;5003395;28;20076;-74
2023/04/17 01:54:21;;;;;;;45.75;24.95;;;9.50;99.90;;;;;;5004249;28;20521;-76
2023/04/17 01:56:48;;;;;;;48.33;25.63;;;9.50;99.90;;;;;;5011901;28;20053;-75
2023/04/17 01:59:15;;;;;;;45.17;24.63;;;9.50;99.90;;;;;;5009203;28;20057;-76
2023/04/17 02:01:42;;;;;;;44.33;26.23;;;9.40;99.90;;;;;;5020955;28;20050;-75
2023/04/17 02:04:09;;;;;;;48.05;25.85;;;9.50;99.90;;;;;;5012138;28;20057;-75
2023/04/17 02:06:37;;;;;;;45.80;26.00;;;9.50;99.90;;;;;;5010456;28;20047;-76
2023/04/17 02:09:04;;;;;;;45.47;27.52;;;9.50;99.90;;;;;;5004979;28;20127;-74
2023/04/17 02:11:32;;;;;;;50.20;26.83;;;9.50;99.90;;;;;;5016493;28;20725;-74
2023/04/17 02:14:00;;;;;;;52.42;26.83;;;9.50;99.90;;;;;;5012464;28;20133;-75
2023/04/17 02:16:28;;;;;;;41.50;25.88;;;9.50;99.90;;;;;;5024896;28;20072;-76
2023/04/17 02:18:55;;;;;;;47.33;28.40;;;9.60;99.90;;;;;;5013834;28;20058;-74
2023/04/17 02:21:22;;;;;;;52.80;27.45;;;9.60;99.90;;;;;;5021113;28;20072;-77
2023/04/17 02:23:49;;;;;;;49.47;28.17;;;9.50;99.90;;;;;;5035766;23;20052;-73
2023/04/17 02:26:16;;;;;;;50.90;27.90;;;9.50;99.90;;;;;;5024263;28;20053;-74
2023/04/17 02:28:44;;;;;;;51.92;28.15;;;9.50;99.90;;;;;;5019432;28;20084;-74
2023/04/17 02:31:11;;;;;;;51.05;28.95;;;9.50;99.90;;;;;;5029606;28;20045;-73
2023/04/17 02:33:38;;;;;;;52.15;28.88;;;9.50;99.90;;;;;;5027167;28;20045;-74
2023/04/17 02:36:05;;;;;;;53.47;28.95;;;9.50;99.90;;;;;;5023872;28;20038;-73
2023/04/17 02:38:32;;;;;;;51.90;28.65;;;9.50;99.90;;;;;;5023797;28;20191;-75
2023/04/17 02:40:59;;;;;;;52.70;28.00;;;9.50;99.90;;;;;;5020414;28;20053;-74
2023/04/17 02:43:25;;;;;;;52.42;29.05;;;9.30;99.90;;;;;;5021664;28;20088;-74
2023/04/17 02:45:52;;;;;;;59.25;32.88;;;9.30;99.90;;;;;;5018743;28;20128;-74
2023/04/17 02:48:19;;;;;;;56.50;31.35;;;9.40;99.90;;;;;;5020125;28;20506;-74
2023/04/17 02:50:45;;;;;;;59.20;30.73;;;9.40;99.90;;;;;;5016367;28;20042;-74
2023/04/17 02:53:12;;;;;;;56.20;33.42;;;9.40;99.90;;;;;;5016343;28;20042;-73
2023/04/17 02:55:39;;;;;;;60.88;34.63;;;9.40;99.90;;;;;;5014486;28;20481;-74
2023/04/17 02:58:06;;;;;;;63.47;33.20;;;9.40;99.90;;;;;;5011101;28;20063;-74
2023/04/17 03:00:32;;;;;;;65.88;34.63;;;9.40;99.90;;;;;;5012668;28;20148;-74
2023/04/17 03:03:01;;;;;;;71.28;37.67;;;9.40;99.90;;;;;;5011561;28;20453;-74
2023/04/17 03:05:29;;;;;;;69.32;36.60;;;9.40;99.90;;;;;;5026618;28;20417;-74
2023/04/17 03:07:59;;;;;;;64.25;36.58;;;9.40;99.90;;;;;;5025615;28;20057;-74
2023/04/17 03:10:25;;;;;;;65.25;37.55;;;9.40;99.90;;;;;;5024017;28;20092;-74
2023/04/17 03:12:52;;;;;;;67.68;37.13;;;9.40;99.90;;;;;;5025188;28;20056;-74
2023/04/17 03:15:19;;;;;;;64.65;37.65;;;9.40;99.90;;;;;;5020554;28;20128;-73
2023/04/17 03:17:46;;;;;;;67.80;37.25;;;9.40;99.90;;;;;;5021107;28;20045;-73
2023/04/17 03:20:14;;;;;;;67.70;37.78;;;9.40;99.90;;;;;;5018874;28;20121;-74
2023/04/17 03:22:41;;;;;;;66.65;38.58;;;9.40;99.90;;;;;;5018971;28;20050;-73
2023/04/17 03:25:09;;;;;;;73.07;39.72;;;9.40;99.90;;;;;;5017517;28;20076;-74
2023/04/17 03:27:35;;;;;;;71.85;38.50;;;9.40;99.90;;;;;;5014016;28;20085;-74
2023/04/17 03:30:02;;;;;;;74.05;38.80;;;9.40;99.90;;;;;;5015314;28;20045;-73
2023/04/17 03:32:29;;;;;;;73.50;38.38;;;9.40;99.90;;;;;;5014047;28;20133;-73
2023/04/17 03:34:56;;;;;;;66.95;38.30;;;9.40;99.90;;;;;;5011557;28;20041;-74
2023/04/17 03:37:22;;;;;;;73.82;38.53;;;9.40;99.90;;;;;;5014455;28;20406;-74
2023/04/17 03:39:49;;;;;;;69.88;39.33;;;9.40;99.90;;;;;;5024406;28;20081;-74
2023/04/17 03:42:16;;;;;;;72.13;39.25;;;9.30;99.90;;;;;;5024831;28;20140;-74
2023/04/17 03:44:42;;;;;;;69.70;38.42;;;9.40;99.90;;;;;;5022404;28;20050;-74
2023/04/17 03:47:09;;;;;;;67.65;37.95;;;9.30;99.90;;;;;;5024484;28;20132;-74
2023/04/17 03:49:36;;;;;;;73.03;40.03;;;9.30;99.90;;;;;;5015636;28;20046;-74
2023/04/17 03:52:03;;;;;;;67.78;38.83;;;9.30;99.90;;;;;;5021967;28;20056;-73
2023/04/17 03:54:34;;;;;;;71.20;39.13;;;9.30;99.90;;;;;;5021069;28;20695;-74
2023/04/17 03:57:02;;;;;;;76.18;39.95;;;9.30;99.90;;;;;;5022301;28;20038;-74
2023/04/17 03:59:30;;;;;;;68.82;39.30;;;9.30;99.90;;;;;;5019866;28;20516;-74
2023/04/17 04:01:57;;;;;;;75.03;39.22;;;9.30;99.90;;;;;;5019849;28;20157;-74
2023/04/17 04:04:24;;;;;;;77.60;41.58;;;9.40;99.90;;;;;;5019692;28;20482;-74
2023/04/17 04:06:53;;;;;;;72.95;40.30;;;9.30;99.90;;;;;;5017854;28;20100;-74
2023/04/17 04:09:20;;;;;;;72.53;41.45;;;9.40;99.90;;;;;;5012750;28;20046;-74
2023/04/17 04:11:47;;;;;;;66.70;40.15;;;9.40;99.90;;;;;;5014737;28;20132;-73
2023/04/17 04:14:13;;;;;;;73.53;40.72;;;9.30;99.90;;;;;;5023872;28;20103;-73
2023/04/17 04:16:41;;;;;;;68.93;40.42;;;9.30;99.90;;;;;;5030967;28;20092;-74
2023/04/17 04:19:07;;;;;;;73.75;39.75;;;9.30;99.90;;;;;;5021681;28;20038;-73
2023/04/17 04:21:34;;;;;;;74.18;40.70;;;9.30;99.90;;;;;;5026768;28;20564;-74
2023/04/17 04:24:02;;;;;;;79.72;42.63;;;9.30;99.90;;;;;;5021346;28;20112;-74
2023/04/17 04:26:28;;;;;;;75.05;41.45;;;9.30;99.90;;;;;;5022109;28;20056;-74
2023/04/17 04:28:55;;;;;;;78.97;41.80;;;9.30;99.90;;;;;;5023809;28;20050;-74
2023/04/17 04:31:24;;;;;;;74.45;42.05;;;9.30;99.90;;;;;;5022117;28;20516;-74
2023/04/17 04:33:54;;;;;;;74.82;40.50;;;9.40;99.90;;;;;;5020131;28;20076;-74
2023/04/17 04:36:21;;;;;;;74.30;41.92;;;9.40;99.90;;;;;;5017853;28;20049;-74
2023/04/17 04:38:49;;;;;;;73.07;40.28;;;9.40;99.90;;;;;;5019498;28;20133;-74
2023/04/17 04:41:18;;;;;;;75.72;41.63;;;9.40;99.90;;;;;;5016678;28;20100;-73
2023/04/17 04:43:45;;;;;;;78.22;42.85;;;9.40;99.90;;;;;;5017316;28;20133;-74
2023/04/17 04:46:12;;;;;;;69.43;41.72;;;9.40;99.90;;;;;;5013024;28;20050;-74
2023/04/17 04:48:38;;;;;;;71.40;40.15;;;9.40;99.90;;;;;;5020900;28;20107;-74
2023/04/17 04:51:08;;;;;;;70.88;40.58;;;9.40;99.90;;;;;;5028768;28;20132;-75
2023/04/17 04:53:35;;;;;;;66.28;38.60;;;9.40;99.90;;;;;;5023689;28;20121;-73
2023/04/17 04:56:02;;;;;;;73.20;39.65;;;9.40;99.90;;;;;;5027177;28;20132;-74
2023/04/17 04:58:28;;;;;;;61.47;37.08;;;9.30;99.90;;;;;;5025553;28;20046;-74
2023/04/17 05:00:55;;;;;;;63.00;37.90;;;9.30;99.90;;;;;;5024091;28;20061;-74
2023/04/17 05:03:22;;;;;;;62.58;36.60;;;9.30;99.90;;;;;;5016763;28;20048;-74
2023/04/17 05:05:49;;;;;;;60.90;36.97;;;9.30;99.90;;;;;;5020235;28;20136;-73
2023/04/17 05:08:16;;;;;;;67.25;36.47;;;9.20;99.90;;;;;;5021805;28;20084;-74
2023/04/17 05:10:44;;;;;;;66.50;36.00;;;9.20;99.90;;;;;;5019468;28;20081;-73
2023/04/17 05:13:11;;;;;;;60.75;35.92;;;9.20;99.90;;;;;;5016774;28;20045;-73
2023/04/17 05:15:40;;;;;;;60.33;37.03;;;9.20;99.90;;;;;;5017540;28;20394;-74
2023/04/17 05:18:06;;;;;;;58.80;36.97;;;9.20;99.90;;;;;;5014985;28;20069;-74
2023/04/17 05:20:33;;;;;;;62.25;37.17;;;9.30;99.90;;;;;;5012648;28;20053;-74
2023/04/17 05:23:00;;;;;;;64.50;35.80;;;9.30;99.90;;;;;;5013405;28;20448;-74
2023/04/17 05:25:27;;;;;;;65.60;37.38;;;9.30;99.90;;;;;;5029973;28;20076;-74
2023/04/17 05:27:54;;;;;;;64.15;37.63;;;9.30;99.90;;;;;;5026526;28;20487;-74
2023/04/17 05:30:21;;;;;;;61.10;36.20;;;9.30;99.90;;;;;;5025819;28;20081;-73
2023/04/17 05:32:47;;;;;;;58.35;36.00;;;9.30;99.90;;;;;;5021731;28;20045;-74
2023/04/17 05:35:14;;;;;;;64.20;37.63;;;9.30;99.90;;;;;;5023489;28;20046;-74
2023/04/17 05:37:41;;;;;;;55.03;35.25;;;9.30;99.90;;;;;;5022785;28;20096;-73
2023/04/17 05:40:08;;;;;;;58.90;37.65;;;9.30;99.90;;;;;;5019866;28;20508;-73
2023/04/17 05:42:35;;;;;;;57.53;35.72;;;9.30;99.90;;;;;;5021909;28;20506;-74
2023/04/17 05:45:02;;;;;;;59.03;35.95;;;9.30;99.90;;;;;;5018263;28;20533;-75
2023/04/17 05:47:29;;;;;;;59.65;36.60;;;9.30;99.90;;;;;;5019507;28;20096;-74
2023/04/17 05:49:57;;;;;;;60.33;35.72;;;9.40;99.90;;;;;;5016967;28;20046;-73
2023/04/17 05:52:24;;;;;;;56.88;34.92;;;9.40;99.90;;;;;;5016193;28;20111;-74
2023/04/17 05:54:51;;;;;;;62.38;38.65;;;9.50;99.90;;;;;;5015189;28;20073;-73
2023/04/17 05:57:18;;;;;;;58.33;35.28;;;9.50;99.90;;;;;;5013361;28;20077;-73
2023/04/17 05:59:45;;;;;;;60.75;35.35;;;9.50;99.90;;;;;;5020445;28;20051;-74
2023/04/17 06:02:12;;;;;;;57.15;34.50;;;9.60;99.90;;;;;;5023549;28;20137;-74
2023/04/17 06:04:40;;;;;;;55.97;35.58;;;9.60;99.90;;;;;;5025840;28;20521;-74
2023/04/17 06:07:08;;;;;;;53.20;33.33;;;9.70;99.90;;;;;;5024541;28;20567;-75
2023/04/17 06:09:35;;;;;;;58.67;35.10;;;9.70;99.90;;;;;;5022857;28;20358;-74
2023/04/17 06:12:03;;;;;;;51.25;33.58;;;9.70;99.90;;;;;;5014943;28;20047;-74
2023/04/17 06:14:30;;;;;;;54.28;34.08;;;9.70;99.90;;;;;;5018169;28;20133;-73
2023/04/17 06:16:57;;;;;;;48.17;32.47;;;9.70;99.90;;;;;;5021734;28;20057;-74
2023/04/17 06:19:24;;;;;;;54.25;33.50;;;9.70;99.90;;;;;;5019801;28;20177;-73
2023/04/17 06:21:50;;;;;;;50.65;33.40;;;9.70;99.90;;;;;;5018202;28;20081;-74
2023/04/17 06:24:17;;;;;;;52.20;33.17;;;9.70;99.90;;;;;;5017674;28;20048;-74
2023/04/17 06:26:44;;;;;;;51.40;32.30;;;9.70;99.90;;;;;;5016014;28;20476;-74
2023/04/17 06:29:12;;;;;;;53.78;32.92;;;9.70;99.90;;;;;;5014770;28;20626;-75
2023/04/17 06:31:39;;;;;;;47.83;31.17;;;9.70;99.90;;;;;;5013387;28;20042;-74
2023/04/17 06:34:06;;;;;;;53.85;31.38;;;9.60;99.90;;;;;;5013774;28;20046;-74
2023/04/17 06:36:33;;;;;;;50.50;32.03;;;9.60;99.90;;;;;;5023548;28;20065;-74
2023/04/17 06:38:59;;;;;;;52.00;33.10;;;9.60;99.90;;;;;;5022862;28;20140;-74
2023/04/17 06:41:26;;;;;;;49.33;31.95;;;9.60;99.90;;;;;;5027438;28;20686;-74
2023/04/17 06:43:53;;;;;;;51.60;32.47;;;9.60;99.90;;;;;;5021465;28;20056;-74
2023/04/17 06:46:21;;;;;;;49.35;32.05;;;9.50;99.90;;;;;;5024059;28;20428;-74
2023/04/17 06:48:50;;;;;;;48.00;31.27;;;9.50;99.90;;;;;;5017742;28;20068;-74
2023/04/17 06:51:19;;;;;;;53.27;33.23;;;9.50;99.90;;;;;;5020854;28;20045;-74
2023/04/17 06:53:47;;;;;;;50.08;31.42;;;9.50;99.90;;;;;;5020508;28;20077;-74
2023/04/17 06:56:13;;;;;;;53.85;31.77;;;9.60;99.90;;;;;;5018179;28;20072;-74
2023/04/17 06:58:44;;;;;;;54.00;30.98;;;9.50;99.90;;;;;;5018772;28;20049;-74
2023/04/17 07:01:12;;;;;;;50.35;30.48;;;9.60;99.90;;;;;;5015529;28;20582;-73
2023/04/17 07:03:40;;;;;;;51.17;31.45;;;9.50;99.90;;;;;;4998878;28;20082;-73
2023/04/17 07:06:07;;;;;;;47.63;31.63;;;9.50;99.90;;;;;;5013385;28;20145;-74
2023/04/17 07:08:34;;;;;;;45.67;29.95;;;9.60;99.90;;;;;;5012296;28;20069;-73
2023/04/17 07:11:01;;;;;;;44.15;30.27;;;9.60;99.90;;;;;;5025691;28;20045;-73
2023/04/17 07:13:30;;;;;;;44.60;29.58;;;9.70;99.90;;;;;;5024196;28;20125;-74
2023/04/17 07:15:58;;;;;;;44.72;29.58;;;9.70;99.90;;;;;;5024552;28;20045;-74
2023/04/17 07:18:25;;;;;;;44.78;29.55;;;9.70;99.90;;;;;;5022486;28;20096;-74
2023/04/17 07:20:52;;;;;;;46.53;30.70;;;9.70;99.90;;;;;;5022000;28;20523;-74
2023/04/17 07:23:19;;;;;;;43.65;28.92;;;9.70;99.90;;;;;;5021902;28;20045;-73
2023/04/17 07:25:46;;;;;;;45.25;29.70;;;9.80;99.90;;;;;;5021315;28;20101;-74
2023/04/17 07:28:13;;;;;;;41.42;28.77;;;9.80;99.90;;;;;;5020350;28;20081;-74
2023/04/17 07:30:41;;;;;;;40.50;28.13;;;9.90;99.90;;;;;;5024977;28;20103;-75
2023/04/17 07:33:08;;;;;;;45.20;28.10;;;10.00;99.90;;;;;;5023621;28;20096;-74
2023/04/17 07:35:35;;;;;;;39.42;27.70;;;10.00;99.90;;;;;;5014638;28;20038;-74
2023/04/17 07:38:03;;;;;;;38.42;27.35;;;10.00;99.90;;;;;;5020989;28;20140;-74
2023/04/17 07:40:30;;;;;;;38.60;27.10;;;10.10;99.90;;;;;;5017848;28;20417;-74
2023/04/17 07:42:57;;;;;;;33.83;24.55;;;10.10;99.90;;;;;;5015607;28;20458;-74
2023/04/17 07:45:25;;;;;;;36.58;25.50;;;10.20;99.90;;;;;;5023131;28;20048;-74
2023/04/17 07:47:55;;;;;;;33.35;22.83;;;10.20;99.90;;;;;;5025286;28;20054;-75
2023/04/17 07:50:22;;;;;;;31.95;23.25;;;10.30;99.90;;;;;;5030136;28;20046;-74
2023/04/17 07:52:49;;;;;;;34.40;23.55;;;10.40;99.90;;;;;;5017906;28;20081;-74
2023/04/17 07:55:16;;;;;;;28.70;21.40;;;10.50;99.90;;;;;;5027285;28;20456;-75
2023/04/17 07:57:45;;;;;;;27.45;20.55;;;10.60;99.90;;;;;;5023094;28;20087;-75
2023/04/17 08:00:13;;;;;;;32.27;21.63;;;10.80;99.90;;;;;;5023368;28;20133;-74
2023/04/17 08:02:41;;;;;;;27.35;19.63;;;10.90;99.90;;;;;;5025922;28;20119;-73
2023/04/17 08:05:09;;;;;;;25.95;19.00;;;10.90;99.90;;;;;;5016106;28;20045;-74
2023/04/17 08:07:36;;;;;;;26.83;19.90;;;10.90;99.90;;;;;;5018869;28;20045;-74
2023/04/17 08:10:03;;;;;;;24.75;17.90;;;11.00;99.90;;;;;;5018131;28;20054;-75
2023/04/17 08:12:30;;;;;;;20.92;15.88;;;11.00;99.90;;;;;;5021085;28;20053;-74
2023/04/17 08:14:57;;;;;;;22.63;16.60;;;11.00;99.90;;;;;;5017711;28;20073;-74
2023/04/17 08:17:24;;;;;;;22.85;16.95;;;11.10;99.90;;;;;;5019395;28;20049;-74
2023/04/17 08:19:56;;;;;;;26.77;19.02;;;11.20;99.90;;;;;;5017214;28;20057;-74
2023/04/17 08:22:24;;;;;;;25.85;19.58;;;11.20;99.90;;;;;;5021090;28;20041;-74
2023/04/17 08:24:56;;;;;;;24.17;18.95;;;11.30;99.90;;;;;;5045455;23;20145;-77
2023/04/17 08:27:24;;;;;;;27.83;17.42;;;11.30;99.90;;;;;;5016481;28;20108;-77
2023/04/17 08:29:54;;;;;;;24.25;19.05;;;11.20;99.90;;;;;;5016125;28;20123;-76
2023/04/17 08:32:21;;;;;;;20.15;15.25;;;11.20;99.90;;;;;;5012260;28;20440;-76
2023/04/17 08:34:47;;;;;;;25.70;17.70;;;11.10;99.90;;;;;;5005499;28;20510;-77
2023/04/17 08:37:14;;;;;;;23.33;17.58;;;11.10;99.90;;;;;;4989678;28;20041;-76
2023/04/17 08:39:41;;;;;;;20.67;15.75;;;11.20;99.90;;;;;;4988743;28;20127;-77
2023/04/17 08:42:13;;;;;;;21.63;16.27;;;11.20;99.90;;;;;;4988952;28;20050;-77
2023/04/17 08:44:44;;;;;;;22.33;16.60;;;11.20;99.90;;;;;;4999875;28;20059;-76
2023/04/17 08:47:11;;;;;;;20.92;15.32;;;11.20;99.90;;;;;;4997348;28;20082;-76
2023/04/17 08:49:42;;;;;;;25.65;18.13;;;11.20;99.90;;;;;;4984319;28;20137;-76
2023/04/17 08:52:10;;;;;;;22.95;18.00;;;11.20;99.90;;;;;;4991302;28;20047;-76
2023/04/17 08:54:37;;;;;;;23.70;18.13;;;11.30;99.90;;;;;;4978442;28;20121;-76
2023/04/17 08:57:05;;;;;;;24.10;15.85;;;11.30;99.90;;;;;;4990586;28;20057;-76
2023/04/17 08:59:32;;;;;;;20.42;15.95;;;11.30;99.90;;;;;;4994439;28;20053;-76
2023/04/17 09:02:06;;;;;;;22.63;15.45;;;11.30;99.90;;;;;;4989467;28;20462;-77
2023/04/17 09:04:38;;;;;;;19.52;14.32;;;11.20;99.90;;;;;;4983426;28;20046;-76
2023/04/17 09:07:06;;;;;;;19.02;14.55;;;11.20;99.90;;;;;;4990035;28;20050;-76
2023/04/17 09:09:53;;;;;;;21.40;16.50;;;11.20;99.90;;;;;;4985825;28;20522;-76
2023/04/17 09:12:24;;;;;;;22.80;16.08;;;11.10;99.90;;;;;;4985617;28;20400;-76
2023/04/17 09:14:51;;;;;;;19.85;15.20;;;11.20;99.90;;;;;;4987239;28;20042;-77
2023/04/17 09:17:19;;;;;;;22.73;16.60;;;11.20;99.90;;;;;;4994516;28;20045;-76
2023/04/17 09:20:07;;;;;;;21.33;16.63;;;11.10;99.90;;;;;;4988809;28;20061;-77
2023/04/17 09:22:36;;;;;;;22.20;16.75;;;11.10;99.90;;;;;;4984468;28;20057;-76
2023/04/17 09:25:04;;;;;;;19.98;16.00;;;11.00;99.90;;;;;;4990934;28;20103;-76
2023/04/17 09:27:31;;;;;;;19.77;14.13;;;11.10;99.90;;;;;;4994878;28;20050;-76
2023/04/17 09:30:02;;;;;;;21.88;15.68;;;11.00;99.90;;;;;;4977815;28;20094;-76
2023/04/17 09:32:31;;;;;;;22.25;16.27;;;11.00;99.90;;;;;;4995946;28;20688;-76
2023/04/17 09:35:00;;;;;;;22.15;15.48;;;11.00;99.90;;;;;;4990678;28;20050;-76
2023/04/17 09:37:48;;;;;;;23.30;17.17;;;11.00;99.90;;;;;;4994848;28;20498;-76
2023/04/17 09:40:15;;;;;;;20.50;16.20;;;10.90;99.90;;;;;;4993628;28;20053;-75
2023/04/17 09:43:01;;;;;;;21.50;15.48;;;10.90;99.90;;;;;;4987814;28;20145;-76
2023/04/17 09:45:38;;;;;;;22.60;15.82;;;10.90;99.90;;;;;;4984849;28;20129;-76
2023/04/17 09:48:07;;;;;;;22.17;16.05;;;10.90;99.90;;;;;;4989336;28;20105;-76
2023/04/17 09:50:35;;;;;;;20.85;15.10;;;10.90;99.90;;;;;;4986566;28;20077;-77
2023/04/17 09:53:06;;;;;;;21.17;15.75;;;11.00;99.90;;;;;;4984619;28;20050;-76
2023/04/17 09:55:35;;;;;;;20.63;15.07;;;11.00;99.90;;;;;;4986841;28;20046;-76
2023/04/17 09:58:03;;;;;;;22.33;15.68;;;11.00;99.90;;;;;;4983632;28;20541;-76
2023/04/17 10:00:30;;;;;;;19.10;14.75;;;11.00;99.90;;;;;;4992727;28;20099;-76
2023/04/17 10:02:58;;;;;;;19.65;15.25;;;11.10;99.90;;;;;;4981982;28;20077;-76
2023/04/17 10:05:28;;;;;;;18.52;14.00;;;11.20;99.90;;;;;;4981296;28;20472;-77
2023/04/17 10:07:55;;;;;;;15.73;12.55;;;11.20;99.90;;;;;;4982090;28;20046;-76
2023/04/17 10:10:29;;;;;;;17.20;13.02;;;11.20;99.90;;;;;;4978595;28;20046;-77
2023/04/17 10:12:59;;;;;;;16.85;13.50;;;11.20;99.90;;;;;;4984206;28;20495;-76
2023/04/17 10:15:27;;;;;;;18.85;12.77;;;11.30;99.90;;;;;;4979906;28;20042;-76
2023/04/17 10:17:56;;;;;;;15.05;11.63;;;11.40;99.90;;;;;;4988768;28;20086;-76
2023/04/17 10:20:23;;;;;;;17.52;10.80;;;11.40;99.90;;;;;;4983545;28;20046;-76
2023/04/17 10:22:53;;;;;;;14.70;11.20;;;11.40;99.90;;;;;;4986438;28;20050;-76
2023/04/17 10:25:22;;;;;;;14.88;11.05;;;11.50;99.90;;;;;;4987457;28;20050;-77
2023/04/17 10:28:07;;;;;;;12.88;9.70;;;11.70;99.90;;;;;;4982612;28;20053;-76
2023/04/17 10:31:02;;;;;;;13.43;9.23;;;11.80;99.90;;;;;;4986114;28;20054;-76
2023/04/17 10:33:29;;;;;;;12.68;9.18;;;11.90;99.90;;;;;;4975975;28;20082;-76
2023/04/17 10:35:56;;;;;;;11.05;9.10;;;12.00;99.90;;;;;;4986371;28;20133;-76
2023/04/17 10:38:42;;;;;;;12.95;9.93;;;12.10;99.90;;;;;;4982085;28;20482;-77
2023/04/17 10:41:11;;;;;;;13.90;10.10;;;12.20;99.90;;;;;;4983074;28;20058;-76
2023/04/17 10:43:43;;;;;;;13.27;9.65;;;12.20;99.90;;;;;;4979835;28;20129;-76
2023/04/17 10:46:13;;;;;;;11.00;9.15;;;12.30;99.90;;;;;;4984218;28;20133;-77
2023/04/17 10:48:50;;;;;;;11.20;9.02;;;12.20;99.90;;;;;;4981765;28;20498;-77
2023/04/17 10:51:20;;;;;;;10.52;8.52;;;12.20;99.90;;;;;;4985831;28;20053;-76
2023/04/17 10:53:49;;;;;;;8.37;7.40;;;12.20;99.90;;;;;;4990976;28;20121;-76
2023/04/17 10:56:18;;;;;;;10.95;8.38;;;12.20;99.90;;;;;;4983631;28;20285;-77
2023/04/17 10:59:02;;;;;;;11.00;7.75;;;12.10;99.90;;;;;;5001226;28;20057;-76
2023/04/17 11:01:36;;;;;;;9.27;7.72;;;12.10;99.90;;;;;;4984754;28;20069;-75
2023/04/17 11:04:03;;;;;;;13.07;9.15;;;12.10;99.90;;;;;;4983862;28;20314;-76
2023/04/17 11:06:32;;;;;;;11.45;9.38;;;12.10;99.90;;;;;;4986459;28;20178;-76
2023/04/17 11:08:59;;;;;;;14.15;9.48;;;12.20;99.90;;;;;;4983671;28;20074;-76
2023/04/17 11:11:26;;;;;;;11.05;9.00;;;12.30;99.90;;;;;;4983327;28;20050;-76
2023/04/17 11:14:14;;;;;;;11.25;8.80;;;12.30;99.90;;;;;;4980101;28;20110;-76
2023/04/17 11:16:43;;;;;;;10.95;8.77;;;12.50;99.90;;;;;;4987199;28;20466;-76
2023/04/17 11:19:12;;;;;;;10.65;8.10;;;12.60;99.90;;;;;;4979662;28;20051;-76
2023/04/17 11:21:41;;;;;;;10.68;8.18;;;12.70;99.90;;;;;;4984644;28;20117;-77
2023/04/17 11:24:09;;;;;;;10.23;8.55;;;12.60;99.90;;;;;;4980556;28;20082;-76
2023/04/17 11:26:43;;;;;;;10.02;7.10;;;12.70;99.90;;;;;;4985492;28;20088;-77
2023/04/17 11:29:17;;;;;;;7.82;6.40;;;12.60;99.90;;;;;;4990135;28;20593;-76
2023/04/17 11:31:45;;;;;;;9.63;7.30;;;12.70;99.90;;;;;;4983779;28;20047;-76
2023/04/17 11:34:13;;;;;;;8.75;7.10;;;12.60;99.90;;;;;;4985341;28;20439;-76
2023/04/17 11:36:40;;;;;;;8.25;6.85;;;12.50;99.90;;;;;;4984207;28;20070;-76
2023/04/17 11:39:07;;;;;;;7.90;6.03;;;12.50;99.90;;;;;;4987069;28;20050;-76
2023/04/17 11:41:38;;;;;;;9.82;6.70;;;12.60;99.90;;;;;;4985935;28;20046;-76
2023/04/17 11:44:08;;;;;;;8.63;6.80;;;12.70;99.90;;;;;;4984648;28;20101;-76
2023/04/17 11:46:35;;;;;;;10.13;6.70;;;12.80;99.90;;;;;;4986580;28;20046;-76
2023/04/17 11:49:06;;;;;;;8.15;6.30;;;12.80;99.90;;;;;;4988393;28;20051;-76
2023/04/17 11:51:33;;;;;;;;;;;12.80;99.90;;;;;;4987536;28;20100;-77
2023/04/17 11:54:00;;;;;;;6.60;5.38;;;12.80;99.90;;;;;;4981359;28;19922;-77
2023/04/17 11:56:29;;;;;;;6.40;5.07;;;12.90;99.90;;;;;;4990531;28;20077;-76
2023/04/17 11:58:57;;;;;;;5.95;4.40;;;12.90;99.90;;;;;;4978892;28;20050;-77
2023/04/17 12:01:26;;;;;;;8.27;4.97;;;12.80;99.90;;;;;;5005126;28;20096;-76
2023/04/17 12:03:55;;;;;;;5.10;3.83;;;12.80;99.90;;;;;;4980137;28;20047;-76
2023/04/17 12:06:26;;;;;;;4.47;4.03;;;12.70;99.90;;;;;;4985287;28;20098;-76
2023/04/17 12:08:54;;;;;;;8.15;3.97;;;12.70;99.90;;;;;;4984317;28;20042;-76
2023/04/17 12:11:25;;;;;;;4.90;3.30;;;12.60;99.90;;;;;;4986357;28;20047;-77
2023/04/17 12:13:52;;;;;;;3.85;3.35;;;12.60;99.90;;;;;;4985049;28;20461;-76
2023/04/17 12:16:19;;;;;;;5.22;2.83;;;12.60;99.90;;;;;;4990345;28;20135;-76
2023/04/17 12:18:46;;;;;;;5.30;2.92;;;12.60;99.90;;;;;;4984343;28;20052;-76
2023/04/17 12:21:13;;;;;;;3.67;3.03;;;12.60;99.90;;;;;;4991260;28;20043;-77
2023/04/17 12:23:40;;;;;;;4.38;3.65;;;12.70;99.90;;;;;;4985113;28;20590;-77
2023/04/17 12:26:07;;;;;;;3.90;3.10;;;12.80;99.90;;;;;;4988282;28;20055;-77
2023/04/17 12:28:35;;;;;;;4.25;3.42;;;12.80;99.90;;;;;;4984285;28;20463;-77
2023/04/17 12:31:03;;;;;;;4.22;3.80;;;12.90;99.90;;;;;;4989635;28;20101;-76
2023/04/17 12:33:31;;;;;;;6.22;5.15;;;13.10;99.90;;;;;;4983108;28;20077;-77
2023/04/17 12:35:59;;;;;;;5.50;4.28;;;13.10;99.90;;;;;;4989889;28;20133;-77
2023/04/17 12:38:26;;;;;;;6.65;4.38;;;13.20;99.90;;;;;;5002713;28;20560;-76
2023/04/17 12:40:53;;;;;;;6.63;4.43;;;13.30;99.90;;;;;;4988627;28;20134;-76